Terminal Aerodrome Forecast
Issued by NWS Sterling, VA

Home | Current Version | Previous Version | Text Only | Print | Product List | Glossary On
Versions: 1 2 3 4 5 6 7 8 9 10 11 12 13 14 15 16 17 18 19 20 21
000
FTUS41 KLWX 011400 AAA
TAFBWI
TAF AMD
KBWI 011437Z 0115/0218 00000KT P6SM SCT060 BKN080 OVC200
     FM012200 13006KT P6SM OVC050
     FM020000 13007KT P6SM OVC025
     FM020200 12007KT 5SM RASN OVC025
     FM020500 13007KT 6SM RA OVC025
     FM020600 13007KT 6SM RA OVC008
     FM020800 13006KT 6SM -RA OVC008 WS020/20035KT
     FM021500 26008KT 6SM -RA OVC008
     FM021700 29010KT P6SM OVC008=

USA.gov is the U.S. government's official web portal to all federal, state and local government web resources and services.